sensor_id;sensor_type;location;lat;lon;timestamp;P1;durP1;ratioP1;P2;durP2;ratioP2
10945;SDS011;5525;42.648;23.368;2022-08-01T00:01:34;3.00;;;2.70;;
10945;SDS011;5525;42.648;23.368;2022-08-01T00:04:02;2.80;;;2.60;;
10945;SDS011;5525;42.648;23.368;2022-08-01T00:06:30;3.00;;;2.80;;
10945;SDS011;5525;42.648;23.368;2022-08-01T00:08:57;2.40;;;2.20;;
10945;SDS011;5525;42.648;23.368;2022-08-01T00:11:24;4.53;;;2.63;;
10945;SDS011;5525;42.648;23.368;2022-08-01T00:13:51;4.28;;;2.55;;
10945;SDS011;5525;42.648;23.368;2022-08-01T00:16:18;2.83;;;2.45;;
10945;SDS011;5525;42.648;23.368;2022-08-01T00:18:47;2.10;;;1.90;;
10945;SDS011;5525;42.648;23.368;2022-08-01T00:21:16;2.50;;;2.22;;
10945;SDS011;5525;42.648;23.368;2022-08-01T00:23:43;2.63;;;2.42;;
10945;SDS011;5525;42.648;23.368;2022-08-01T00:26:10;3.65;;;2.30;;
10945;SDS011;5525;42.648;23.368;2022-08-01T00:28:37;2.70;;;2.10;;
10945;SDS011;5525;42.648;23.368;2022-08-01T00:31:04;2.40;;;2.20;;
10945;SDS011;5525;42.648;23.368;2022-08-01T00:33:31;2.55;;;2.28;;
10945;SDS011;5525;42.648;23.368;2022-08-01T00:35:58;4.00;;;2.10;;
10945;SDS011;5525;42.648;23.368;2022-08-01T00:38:26;3.03;;;2.60;;
10945;SDS011;5525;42.648;23.368;2022-08-01T00:40:53;3.55;;;3.33;;
10945;SDS011;5525;42.648;23.368;2022-08-01T00:43:20;4.93;;;4.53;;
10945;SDS011;5525;42.648;23.368;2022-08-01T00:45:47;5.10;;;4.70;;
10945;SDS011;5525;42.648;23.368;2022-08-01T00:48:14;5.82;;;5.32;;
10945;SDS011;5525;42.648;23.368;2022-08-01T00:50:41;6.45;;;5.95;;
10945;SDS011;5525;42.648;23.368;2022-08-01T00:53:08;6.60;;;5.85;;
10945;SDS011;5525;42.648;23.368;2022-08-01T00:55:37;6.65;;;6.05;;
10945;SDS011;5525;42.648;23.368;2022-08-01T00:58:04;6.88;;;6.10;;
10945;SDS011;5525;42.648;23.368;2022-08-01T01:00:32;6.72;;;6.13;;
10945;SDS011;5525;42.648;23.368;2022-08-01T01:03:00;6.03;;;5.53;;
10945;SDS011;5525;42.648;23.368;2022-08-01T01:05:27;6.05;;;5.43;;
10945;SDS011;5525;42.648;23.368;2022-08-01T01:07:56;6.60;;;6.00;;
10945;SDS011;5525;42.648;23.368;2022-08-01T01:10:28;6.28;;;5.78;;
10945;SDS011;5525;42.648;23.368;2022-08-01T01:13:01;5.78;;;5.20;;
10945;SDS011;5525;42.648;23.368;2022-08-01T01:15:33;5.57;;;4.85;;
10945;SDS011;5525;42.648;23.368;2022-08-01T01:18:07;6.07;;;5.07;;
10945;SDS011;5525;42.648;23.368;2022-08-01T01:20:38;5.50;;;5.10;;
10945;SDS011;5525;42.648;23.368;2022-08-01T01:23:12;6.10;;;5.60;;
10945;SDS011;5525;42.648;23.368;2022-08-01T01:25:58;8.07;;;7.28;;
10945;SDS011;5525;42.648;23.368;2022-08-01T01:28:40;7.78;;;6.97;;
10945;SDS011;5525;42.648;23.368;2022-08-01T01:31:32;7.82;;;7.07;;
10945;SDS011;5525;42.648;23.368;2022-08-01T01:34:05;6.88;;;6.38;;
10945;SDS011;5525;42.648;23.368;2022-08-01T01:36:35;7.47;;;6.75;;
10945;SDS011;5525;42.648;23.368;2022-08-01T01:39:04;7.97;;;7.18;;
10945;SDS011;5525;42.648;23.368;2022-08-01T01:41:33;8.23;;;7.50;;
10945;SDS011;5525;42.648;23.368;2022-08-01T01:44:03;8.05;;;7.32;;
10945;SDS011;5525;42.648;23.368;2022-08-01T01:46:33;8.48;;;7.60;;
10945;SDS011;5525;42.648;23.368;2022-08-01T01:49:01;8.18;;;7.50;;
10945;SDS011;5525;42.648;23.368;2022-08-01T01:51:29;8.98;;;7.63;;
10945;SDS011;5525;42.648;23.368;2022-08-01T01:53:57;8.45;;;7.75;;
10945;SDS011;5525;42.648;23.368;2022-08-01T01:56:25;9.60;;;7.60;;
10945;SDS011;5525;42.648;23.368;2022-08-01T01:58:56;8.02;;;7.43;;
10945;SDS011;5525;42.648;23.368;2022-08-01T02:01:28;7.38;;;6.68;;
10945;SDS011;5525;42.648;23.368;2022-08-01T02:03:58;7.07;;;6.38;;
10945;SDS011;5525;42.648;23.368;2022-08-01T02:06:29;7.30;;;6.60;;
10945;SDS011;5525;42.648;23.368;2022-08-01T02:08:58;5.55;;;5.03;;
10945;SDS011;5525;42.648;23.368;2022-08-01T02:11:27;6.25;;;4.60;;
10945;SDS011;5525;42.648;23.368;2022-08-01T02:13:56;4.40;;;4.00;;
10945;SDS011;5525;42.648;23.368;2022-08-01T02:16:26;4.47;;;4.07;;
10945;SDS011;5525;42.648;23.368;2022-08-01T02:19:01;5.78;;;5.25;;
10945;SDS011;5525;42.648;23.368;2022-08-01T02:21:30;3.78;;;3.47;;
10945;SDS011;5525;42.648;23.368;2022-08-01T02:24:03;4.07;;;3.63;;
10945;SDS011;5525;42.648;23.368;2022-08-01T02:26:35;4.88;;;4.40;;
10945;SDS011;5525;42.648;23.368;2022-08-01T02:29:05;4.78;;;4.32;;
10945;SDS011;5525;42.648;23.368;2022-08-01T02:31:38;6.15;;;5.55;;
10945;SDS011;5525;42.648;23.368;2022-08-01T02:34:12;11.30;;;6.63;;
10945;SDS011;5525;42.648;23.368;2022-08-01T02:36:41;7.90;;;6.47;;
10945;SDS011;5525;42.648;23.368;2022-08-01T02:39:13;6.15;;;5.63;;
10945;SDS011;5525;42.648;23.368;2022-08-01T02:41:42;6.47;;;5.93;;
10945;SDS011;5525;42.648;23.368;2022-08-01T02:44:14;6.32;;;5.82;;
10945;SDS011;5525;42.648;23.368;2022-08-01T02:46:49;6.72;;;6.13;;
10945;SDS011;5525;42.648;23.368;2022-08-01T02:49:19;6.03;;;5.53;;
10945;SDS011;5525;42.648;23.368;2022-08-01T02:51:48;4.93;;;4.53;;
10945;SDS011;5525;42.648;23.368;2022-08-01T02:54:17;5.68;;;4.10;;
10945;SDS011;5525;42.648;23.368;2022-08-01T02:56:46;4.13;;;3.72;;
10945;SDS011;5525;42.648;23.368;2022-08-01T02:59:16;4.30;;;3.90;;
10945;SDS011;5525;42.648;23.368;2022-08-01T03:01:45;3.80;;;3.50;;
10945;SDS011;5525;42.648;23.368;2022-08-01T03:04:13;5.20;;;3.75;;
10945;SDS011;5525;42.648;23.368;2022-08-01T03:06:44;4.53;;;3.83;;
10945;SDS011;5525;42.648;23.368;2022-08-01T03:09:12;5.80;;;3.72;;
10945;SDS011;5525;42.648;23.368;2022-08-01T03:11:40;4.07;;;3.67;;
10945;SDS011;5525;42.648;23.368;2022-08-01T03:14:09;4.30;;;3.60;;
10945;SDS011;5525;42.648;23.368;2022-08-01T03:16:38;6.00;;;3.92;;
10945;SDS011;5525;42.648;23.368;2022-08-01T03:19:08;4.25;;;3.92;;
10945;SDS011;5525;42.648;23.368;2022-08-01T03:21:37;4.57;;;4.00;;
10945;SDS011;5525;42.648;23.368;2022-08-01T03:24:08;5.10;;;4.00;;
10945;SDS011;5525;42.648;23.368;2022-08-01T03:26:37;6.85;;;4.53;;
10945;SDS011;5525;42.648;23.368;2022-08-01T03:29:06;8.95;;;8.10;;
10945;SDS011;5525;42.648;23.368;2022-08-01T03:31:37;8.00;;;4.50;;
10945;SDS011;5525;42.648;23.368;2022-08-01T03:34:07;5.25;;;4.22;;
10945;SDS011;5525;42.648;23.368;2022-08-01T03:36:35;6.07;;;4.38;;
10945;SDS011;5525;42.648;23.368;2022-08-01T03:39:10;6.90;;;4.70;;
10945;SDS011;5525;42.648;23.368;2022-08-01T03:41:40;5.25;;;4.32;;
10945;SDS011;5525;42.648;23.368;2022-08-01T03:44:13;6.63;;;5.57;;
10945;SDS011;5525;42.648;23.368;2022-08-01T03:46:42;4.80;;;4.40;;
10945;SDS011;5525;42.648;23.368;2022-08-01T03:49:14;4.82;;;4.40;;
10945;SDS011;5525;42.648;23.368;2022-08-01T03:51:46;5.15;;;4.65;;
10945;SDS011;5525;42.648;23.368;2022-08-01T03:54:17;7.00;;;4.97;;
10945;SDS011;5525;42.648;23.368;2022-08-01T03:56:48;5.90;;;5.25;;
10945;SDS011;5525;42.648;23.368;2022-08-01T03:59:17;5.38;;;4.90;;
10945;SDS011;5525;42.648;23.368;2022-08-01T04:01:45;5.55;;;5.00;;
10945;SDS011;5525;42.648;23.368;2022-08-01T04:04:12;6.47;;;5.10;;
10945;SDS011;5525;42.648;23.368;2022-08-01T04:06:39;5.25;;;4.35;;
10945;SDS011;5525;42.648;23.368;2022-08-01T04:09:09;4.30;;;3.90;;
10945;SDS011;5525;42.648;23.368;2022-08-01T04:11:38;6.55;;;4.43;;
10945;SDS011;5525;42.648;23.368;2022-08-01T04:14:06;4.35;;;3.90;;
10945;SDS011;5525;42.648;23.368;2022-08-01T04:16:32;6.45;;;3.75;;
10945;SDS011;5525;42.648;23.368;2022-08-01T04:18:59;9.57;;;3.83;;
10945;SDS011;5525;42.648;23.368;2022-08-01T04:21:27;5.32;;;3.88;;
10945;SDS011;5525;42.648;23.368;2022-08-01T04:23:57;5.22;;;3.72;;
10945;SDS011;5525;42.648;23.368;2022-08-01T04:26:30;4.93;;;3.60;;
10945;SDS011;5525;42.648;23.368;2022-08-01T04:29:02;4.70;;;3.30;;
10945;SDS011;5525;42.648;23.368;2022-08-01T04:31:32;4.00;;;3.63;;
10945;SDS011;5525;42.648;23.368;2022-08-01T04:34:02;4.00;;;3.60;;
10945;SDS011;5525;42.648;23.368;2022-08-01T04:36:30;4.65;;;3.40;;
10945;SDS011;5525;42.648;23.368;2022-08-01T04:39:00;3.42;;;2.95;;
10945;SDS011;5525;42.648;23.368;2022-08-01T04:41:29;3.95;;;3.45;;
10945;SDS011;5525;42.648;23.368;2022-08-01T04:43:57;6.35;;;3.90;;
10945;SDS011;5525;42.648;23.368;2022-08-01T04:46:27;7.57;;;4.00;;
10945;SDS011;5525;42.648;23.368;2022-08-01T04:48:55;6.57;;;3.88;;
10945;SDS011;5525;42.648;23.368;2022-08-01T04:51:22;9.00;;;4.80;;
10945;SDS011;5525;42.648;23.368;2022-08-01T04:53:49;6.30;;;4.35;;
10945;SDS011;5525;42.648;23.368;2022-08-01T04:56:17;5.47;;;3.58;;
10945;SDS011;5525;42.648;23.368;2022-08-01T04:58:45;5.03;;;4.22;;
10945;SDS011;5525;42.648;23.368;2022-08-01T05:01:13;4.72;;;4.10;;
10945;SDS011;5525;42.648;23.368;2022-08-01T05:03:41;7.03;;;4.22;;
10945;SDS011;5525;42.648;23.368;2022-08-01T05:06:09;7.38;;;4.25;;
10945;SDS011;5525;42.648;23.368;2022-08-01T05:08:36;8.48;;;4.38;;
10945;SDS011;5525;42.648;23.368;2022-08-01T05:11:02;5.85;;;4.68;;
10945;SDS011;5525;42.648;23.368;2022-08-01T05:13:30;5.28;;;4.32;;
10945;SDS011;5525;42.648;23.368;2022-08-01T05:15:57;5.38;;;3.70;;
10945;SDS011;5525;42.648;23.368;2022-08-01T05:18:23;8.93;;;4.03;;
10945;SDS011;5525;42.648;23.368;2022-08-01T05:20:51;7.78;;;3.60;;
10945;SDS011;5525;42.648;23.368;2022-08-01T05:23:18;7.88;;;3.95;;
10945;SDS011;5525;42.648;23.368;2022-08-01T05:25:45;10.55;;;4.15;;
10945;SDS011;5525;42.648;23.368;2022-08-01T05:28:13;6.45;;;4.00;;
10945;SDS011;5525;42.648;23.368;2022-08-01T05:30:40;6.30;;;3.90;;
10945;SDS011;5525;42.648;23.368;2022-08-01T05:33:07;5.53;;;3.67;;
10945;SDS011;5525;42.648;23.368;2022-08-01T05:35:34;8.90;;;4.03;;
10945;SDS011;5525;42.648;23.368;2022-08-01T05:38:02;8.27;;;4.18;;
10945;SDS011;5525;42.648;23.368;2022-08-01T05:40:29;6.15;;;3.70;;
10945;SDS011;5525;42.648;23.368;2022-08-01T05:42:56;5.50;;;3.75;;
10945;SDS011;5525;42.648;23.368;2022-08-01T05:45:23;3.90;;;3.35;;
10945;SDS011;5525;42.648;23.368;2022-08-01T05:47:49;5.63;;;3.53;;
10945;SDS011;5525;42.648;23.368;2022-08-01T05:50:16;4.30;;;3.00;;
10945;SDS011;5525;42.648;23.368;2022-08-01T05:52:43;3.95;;;3.50;;
10945;SDS011;5525;42.648;23.368;2022-08-01T05:55:11;3.95;;;3.47;;
10945;SDS011;5525;42.648;23.368;2022-08-01T05:57:38;5.97;;;3.40;;
10945;SDS011;5525;42.648;23.368;2022-08-01T06:00:06;4.95;;;3.22;;
10945;SDS011;5525;42.648;23.368;2022-08-01T06:02:33;6.63;;;3.10;;
10945;SDS011;5525;42.648;23.368;2022-08-01T06:05:00;5.93;;;2.80;;
10945;SDS011;5525;42.648;23.368;2022-08-01T06:07:27;5.88;;;2.90;;
10945;SDS011;5525;42.648;23.368;2022-08-01T06:09:54;8.35;;;3.42;;
10945;SDS011;5525;42.648;23.368;2022-08-01T06:12:22;3.97;;;2.75;;
10945;SDS011;5525;42.648;23.368;2022-08-01T06:14:49;3.75;;;2.80;;
10945;SDS011;5525;42.648;23.368;2022-08-01T06:17:15;3.70;;;2.78;;
10945;SDS011;5525;42.648;23.368;2022-08-01T06:19:42;6.53;;;2.60;;
10945;SDS011;5525;42.648;23.368;2022-08-01T06:22:09;2.90;;;2.42;;
10945;SDS011;5525;42.648;23.368;2022-08-01T06:24:36;3.65;;;2.38;;
10945;SDS011;5525;42.648;23.368;2022-08-01T06:27:03;3.15;;;2.30;;
10945;SDS011;5525;42.648;23.368;2022-08-01T06:29:31;2.63;;;2.10;;
10945;SDS011;5525;42.648;23.368;2022-08-01T06:31:58;5.13;;;2.50;;
10945;SDS011;5525;42.648;23.368;2022-08-01T06:34:25;2.85;;;2.50;;
10945;SDS011;5525;42.648;23.368;2022-08-01T06:36:52;2.70;;;2.47;;
10945;SDS011;5525;42.648;23.368;2022-08-01T06:39:19;4.93;;;2.50;;
10945;SDS011;5525;42.648;23.368;2022-08-01T06:41:46;6.13;;;2.47;;
10945;SDS011;5525;42.648;23.368;2022-08-01T06:44:13;2.60;;;2.33;;
10945;SDS011;5525;42.648;23.368;2022-08-01T06:46:41;3.75;;;2.55;;
10945;SDS011;5525;42.648;23.368;2022-08-01T06:49:08;2.63;;;2.42;;
10945;SDS011;5525;42.648;23.368;2022-08-01T06:51:35;4.15;;;2.40;;
10945;SDS011;5525;42.648;23.368;2022-08-01T06:54:02;4.03;;;2.53;;
10945;SDS011;5525;42.648;23.368;2022-08-01T06:56:30;4.60;;;2.60;;
10945;SDS011;5525;42.648;23.368;2022-08-01T06:58:56;2.67;;;2.22;;
10945;SDS011;5525;42.648;23.368;2022-08-01T07:01:26;4.00;;;2.60;;
10945;SDS011;5525;42.648;23.368;2022-08-01T07:03:54;3.33;;;2.50;;
10945;SDS011;5525;42.648;23.368;2022-08-01T07:06:22;3.03;;;2.58;;
10945;SDS011;5525;42.648;23.368;2022-08-01T07:08:50;4.28;;;2.53;;
10945;SDS011;5525;42.648;23.368;2022-08-01T07:11:17;3.55;;;2.55;;
10945;SDS011;5525;42.648;23.368;2022-08-01T07:13:43;5.35;;;2.50;;
10945;SDS011;5525;42.648;23.368;2022-08-01T07:16:11;3.70;;;2.65;;
10945;SDS011;5525;42.648;23.368;2022-08-01T07:18:38;3.65;;;2.53;;
10945;SDS011;5525;42.648;23.368;2022-08-01T07:21:06;2.95;;;2.75;;
10945;SDS011;5525;42.648;23.368;2022-08-01T07:23:33;2.95;;;2.75;;
10945;SDS011;5525;42.648;23.368;2022-08-01T07:26:00;5.78;;;3.00;;
10945;SDS011;5525;42.648;23.368;2022-08-01T07:28:28;5.53;;;2.90;;
10945;SDS011;5525;42.648;23.368;2022-08-01T07:30:56;4.25;;;2.75;;
10945;SDS011;5525;42.648;23.368;2022-08-01T07:33:23;3.83;;;2.83;;
10945;SDS011;5525;42.648;23.368;2022-08-01T07:35:49;4.32;;;2.90;;
10945;SDS011;5525;42.648;23.368;2022-08-01T07:38:18;5.13;;;2.70;;
10945;SDS011;5525;42.648;23.368;2022-08-01T07:40:44;4.55;;;2.60;;
10945;SDS011;5525;42.648;23.368;2022-08-01T07:43:11;3.70;;;2.70;;
10945;SDS011;5525;42.648;23.368;2022-08-01T07:45:38;2.63;;;2.42;;
10945;SDS011;5525;42.648;23.368;2022-08-01T07:48:06;4.07;;;2.70;;
10945;SDS011;5525;42.648;23.368;2022-08-01T07:50:34;4.35;;;2.60;;
10945;SDS011;5525;42.648;23.368;2022-08-01T07:53:01;4.00;;;2.47;;
10945;SDS011;5525;42.648;23.368;2022-08-01T07:55:30;3.05;;;2.60;;
10945;SDS011;5525;42.648;23.368;2022-08-01T07:57:56;4.60;;;2.60;;
10945;SDS011;5525;42.648;23.368;2022-08-01T08:00:24;5.38;;;2.80;;
10945;SDS011;5525;42.648;23.368;2022-08-01T08:02:50;6.75;;;2.85;;
10945;SDS011;5525;42.648;23.368;2022-08-01T08:05:18;3.15;;;2.40;;
10945;SDS011;5525;42.648;23.368;2022-08-01T08:07:45;4.60;;;2.45;;
10945;SDS011;5525;42.648;23.368;2022-08-01T08:10:12;2.97;;;2.63;;
10945;SDS011;5525;42.648;23.368;2022-08-01T08:12:40;2.90;;;2.35;;
10945;SDS011;5525;42.648;23.368;2022-08-01T08:15:08;4.28;;;2.88;;
10945;SDS011;5525;42.648;23.368;2022-08-01T08:17:35;3.45;;;2.67;;
10945;SDS011;5525;42.648;23.368;2022-08-01T08:20:03;2.80;;;2.45;;
10945;SDS011;5525;42.648;23.368;2022-08-01T08:22:31;2.85;;;2.63;;
10945;SDS011;5525;42.648;23.368;2022-08-01T08:24:58;3.22;;;2.53;;
10945;SDS011;5525;42.648;23.368;2022-08-01T08:27:25;2.90;;;2.63;;
10945;SDS011;5525;42.648;23.368;2022-08-01T08:29:53;3.40;;;2.72;;
10945;SDS011;5525;42.648;23.368;2022-08-01T08:32:20;3.35;;;2.60;;
10945;SDS011;5525;42.648;23.368;2022-08-01T08:34:47;6.32;;;2.58;;
10945;SDS011;5525;42.648;23.368;2022-08-01T08:37:14;6.30;;;2.70;;
10945;SDS011;5525;42.648;23.368;2022-08-01T08:39:42;3.15;;;2.50;;
10945;SDS011;5525;42.648;23.368;2022-08-01T08:42:09;4.18;;;2.72;;
10945;SDS011;5525;42.648;23.368;2022-08-01T08:44:37;3.97;;;2.60;;
10945;SDS011;5525;42.648;23.368;2022-08-01T08:47:06;4.25;;;2.70;;
10945;SDS011;5525;42.648;23.368;2022-08-01T08:49:34;3.03;;;2.50;;
10945;SDS011;5525;42.648;23.368;2022-08-01T08:52:02;3.00;;;2.58;;
10945;SDS011;5525;42.648;23.368;2022-08-01T08:54:31;2.50;;;2.28;;
10945;SDS011;5525;42.648;23.368;2022-08-01T08:57:01;3.17;;;2.83;;
10945;SDS011;5525;42.648;23.368;2022-08-01T08:59:28;2.83;;;2.55;;
10945;SDS011;5525;42.648;23.368;2022-08-01T09:01:56;3.75;;;2.70;;
10945;SDS011;5525;42.648;23.368;2022-08-01T09:04:25;4.47;;;2.45;;
10945;SDS011;5525;42.648;23.368;2022-08-01T09:06:53;2.58;;;2.30;;
10945;SDS011;5525;42.648;23.368;2022-08-01T09:09:20;2.83;;;2.20;;
10945;SDS011;5525;42.648;23.368;2022-08-01T09:11:48;2.78;;;2.45;;
10945;SDS011;5525;42.648;23.368;2022-08-01T09:14:15;3.75;;;2.70;;
10945;SDS011;5525;42.648;23.368;2022-08-01T09:16:59;4.38;;;2.45;;
10945;SDS011;5525;42.648;23.368;2022-08-01T09:19:35;2.78;;;2.50;;
10945;SDS011;5525;42.648;23.368;2022-08-01T09:22:03;2.70;;;2.50;;
10945;SDS011;5525;42.648;23.368;2022-08-01T09:24:32;3.03;;;2.45;;
10945;SDS011;5525;42.648;23.368;2022-08-01T09:27:00;3.53;;;2.42;;
10945;SDS011;5525;42.648;23.368;2022-08-01T09:29:28;2.50;;;2.28;;
10945;SDS011;5525;42.648;23.368;2022-08-01T09:31:56;3.35;;;2.40;;
10945;SDS011;5525;42.648;23.368;2022-08-01T09:34:25;4.45;;;2.25;;
10945;SDS011;5525;42.648;23.368;2022-08-01T09:36:55;3.47;;;2.65;;
10945;SDS011;5525;42.648;23.368;2022-08-01T09:39:24;3.13;;;2.10;;
10945;SDS011;5525;42.648;23.368;2022-08-01T09:41:53;3.53;;;2.60;;
10945;SDS011;5525;42.648;23.368;2022-08-01T09:44:36;3.58;;;2.33;;
10945;SDS011;5525;42.648;23.368;2022-08-01T09:47:04;2.95;;;2.22;;
10945;SDS011;5525;42.648;23.368;2022-08-01T09:49:32;2.75;;;2.53;;
10945;SDS011;5525;42.648;23.368;2022-08-01T09:52:11;2.85;;;2.45;;
10945;SDS011;5525;42.648;23.368;2022-08-01T09:54:40;2.30;;;2.17;;
10945;SDS011;5525;42.648;23.368;2022-08-01T09:57:12;2.88;;;2.60;;
10945;SDS011;5525;42.648;23.368;2022-08-01T09:59:40;2.75;;;2.25;;
10945;SDS011;5525;42.648;23.368;2022-08-01T10:02:09;2.90;;;2.60;;
10945;SDS011;5525;42.648;23.368;2022-08-01T10:07:16;3.75;;;3.00;;
10945;SDS011;5525;42.648;23.368;2022-08-01T10:09:43;2.78;;;2.58;;
10945;SDS011;5525;42.648;23.368;2022-08-01T10:12:11;4.47;;;3.13;;
10945;SDS011;5525;42.648;23.368;2022-08-01T10:14:40;2.92;;;2.58;;
10945;SDS011;5525;42.648;23.368;2022-08-01T10:17:07;3.45;;;2.60;;
10945;SDS011;5525;42.648;23.368;2022-08-01T10:19:36;4.43;;;2.50;;
10945;SDS011;5525;42.648;23.368;2022-08-01T10:22:04;2.75;;;2.55;;
10945;SDS011;5525;42.648;23.368;2022-08-01T10:24:35;3.05;;;2.78;;
10945;SDS011;5525;42.648;23.368;2022-08-01T10:27:04;4.20;;;2.60;;
10945;SDS011;5525;42.648;23.368;2022-08-01T10:29:35;3.58;;;2.55;;
10945;SDS011;5525;42.648;23.368;2022-08-01T10:32:06;3.38;;;2.55;;
10945;SDS011;5525;42.648;23.368;2022-08-01T10:34:34;3.25;;;2.30;;
10945;SDS011;5525;42.648;23.368;2022-08-01T10:37:02;3.28;;;2.88;;
10945;SDS011;5525;42.648;23.368;2022-08-01T10:39:30;3.88;;;2.40;;
10945;SDS011;5525;42.648;23.368;2022-08-01T10:42:00;3.65;;;2.50;;
10945;SDS011;5525;42.648;23.368;2022-08-01T10:44:30;2.95;;;2.65;;
10945;SDS011;5525;42.648;23.368;2022-08-01T10:47:01;3.55;;;2.38;;
10945;SDS011;5525;42.648;23.368;2022-08-01T10:49:31;3.22;;;2.50;;
10945;SDS011;5525;42.648;23.368;2022-08-01T10:52:03;2.53;;;2.30;;
10945;SDS011;5525;42.648;23.368;2022-08-01T10:54:30;2.63;;;2.42;;
10945;SDS011;5525;42.648;23.368;2022-08-01T10:57:07;4.50;;;2.25;;
10945;SDS011;5525;42.648;23.368;2022-08-01T10:59:35;3.08;;;1.98;;
10945;SDS011;5525;42.648;23.368;2022-08-01T11:02:13;2.60;;;2.40;;
10945;SDS011;5525;42.648;23.368;2022-08-01T11:04:54;2.42;;;2.20;;
10945;SDS011;5525;42.648;23.368;2022-08-01T11:07:34;3.50;;;2.53;;
10945;SDS011;5525;42.648;23.368;2022-08-01T11:10:10;3.58;;;2.20;;
10945;SDS011;5525;42.648;23.368;2022-08-01T11:12:47;4.50;;;2.50;;
10945;SDS011;5525;42.648;23.368;2022-08-01T11:15:18;2.58;;;2.38;;
10945;SDS011;5525;42.648;23.368;2022-08-01T11:17:53;2.35;;;2.03;;
10945;SDS011;5525;42.648;23.368;2022-08-01T11:20:21;4.47;;;2.30;;
10945;SDS011;5525;42.648;23.368;2022-08-01T11:26:13;3.58;;;2.47;;
10945;SDS011;5525;42.648;23.368;2022-08-01T11:28:44;2.40;;;2.20;;
10945;SDS011;5525;42.648;23.368;2022-08-01T11:31:26;2.60;;;2.40;;
10945;SDS011;5525;42.648;23.368;2022-08-01T11:33:57;3.83;;;2.30;;
10945;SDS011;5525;42.648;23.368;2022-08-01T11:36:25;4.53;;;2.45;;
10945;SDS011;5525;42.648;23.368;2022-08-01T11:39:15;4.45;;;2.40;;
10945;SDS011;5525;42.648;23.368;2022-08-01T11:41:44;2.72;;;2.40;;
10945;SDS011;5525;42.648;23.368;2022-08-01T11:44:14;2.70;;;2.38;;
10945;SDS011;5525;42.648;23.368;2022-08-01T11:46:49;2.60;;;2.40;;
10945;SDS011;5525;42.648;23.368;2022-08-01T11:52:16;2.88;;;2.53;;
10945;SDS011;5525;42.648;23.368;2022-08-01T11:54:45;3.13;;;2.40;;
10945;SDS011;5525;42.648;23.368;2022-08-01T11:57:14;3.25;;;2.88;;
10945;SDS011;5525;42.648;23.368;2022-08-01T11:59:46;4.80;;;2.60;;
10945;SDS011;5525;42.648;23.368;2022-08-01T12:02:15;2.70;;;2.50;;
10945;SDS011;5525;42.648;23.368;2022-08-01T12:04:47;4.25;;;2.42;;
10945;SDS011;5525;42.648;23.368;2022-08-01T12:07:16;2.95;;;2.58;;
10945;SDS011;5525;42.648;23.368;2022-08-01T12:09:44;3.67;;;2.70;;
10945;SDS011;5525;42.648;23.368;2022-08-01T12:12:14;2.75;;;2.40;;
10945;SDS011;5525;42.648;23.368;2022-08-01T12:14:43;2.78;;;2.50;;
10945;SDS011;5525;42.648;23.368;2022-08-01T12:17:20;2.75;;;2.55;;
10945;SDS011;5525;42.648;23.368;2022-08-01T12:19:53;3.30;;;2.83;;
10945;SDS011;5525;42.648;23.368;2022-08-01T12:22:22;4.88;;;2.72;;
10945;SDS011;5525;42.648;23.368;2022-08-01T12:24:50;2.83;;;2.63;;
10945;SDS011;5525;42.648;23.368;2022-08-01T12:27:27;6.30;;;2.95;;
10945;SDS011;5525;42.648;23.368;2022-08-01T12:29:56;3.30;;;3.00;;
10945;SDS011;5525;42.648;23.368;2022-08-01T12:32:25;2.95;;;2.70;;
10945;SDS011;5525;42.648;23.368;2022-08-01T12:34:54;3.15;;;2.80;;
10945;SDS011;5525;42.648;23.368;2022-08-01T12:37:22;3.10;;;2.80;;
10945;SDS011;5525;42.648;23.368;2022-08-01T12:39:50;3.08;;;2.83;;
10945;SDS011;5525;42.648;23.368;2022-08-01T12:42:16;3.70;;;2.90;;
10945;SDS011;5525;42.648;23.368;2022-08-01T12:44:44;3.75;;;3.13;;
10945;SDS011;5525;42.648;23.368;2022-08-01T12:47:18;3.30;;;2.92;;
10945;SDS011;5525;42.648;23.368;2022-08-01T12:49:46;5.25;;;2.88;;
10945;SDS011;5525;42.648;23.368;2022-08-01T12:52:14;4.78;;;3.22;;
10945;SDS011;5525;42.648;23.368;2022-08-01T12:55:09;5.07;;;3.13;;
10945;SDS011;5525;42.648;23.368;2022-08-01T12:57:39;3.50;;;3.20;;
10945;SDS011;5525;42.648;23.368;2022-08-01T13:00:11;3.85;;;2.90;;
10945;SDS011;5525;42.648;23.368;2022-08-01T13:02:45;3.90;;;2.92;;
10945;SDS011;5525;42.648;23.368;2022-08-01T13:05:13;3.30;;;3.03;;
10945;SDS011;5525;42.648;23.368;2022-08-01T13:07:43;3.45;;;3.15;;
10945;SDS011;5525;42.648;23.368;2022-08-01T13:10:12;3.42;;;3.13;;
10945;SDS011;5525;42.648;23.368;2022-08-01T13:12:40;3.97;;;3.08;;
10945;SDS011;5525;42.648;23.368;2022-08-01T13:15:21;4.13;;;3.05;;
10945;SDS011;5525;42.648;23.368;2022-08-01T13:17:52;3.47;;;3.17;;
10945;SDS011;5525;42.648;23.368;2022-08-01T13:20:27;3.25;;;2.65;;
10945;SDS011;5525;42.648;23.368;2022-08-01T13:23:13;3.22;;;2.97;;
10945;SDS011;5525;42.648;23.368;2022-08-01T13:25:48;3.20;;;2.70;;
10945;SDS011;5525;42.648;23.368;2022-08-01T13:28:20;3.30;;;3.10;;
10945;SDS011;5525;42.648;23.368;2022-08-01T13:30:52;3.30;;;3.00;;
10945;SDS011;5525;42.648;23.368;2022-08-01T13:33:22;3.10;;;2.90;;
10945;SDS011;5525;42.648;23.368;2022-08-01T13:35:52;3.83;;;2.80;;
10945;SDS011;5525;42.648;23.368;2022-08-01T13:38:20;2.97;;;2.78;;
10945;SDS011;5525;42.648;23.368;2022-08-01T13:41:08;4.68;;;2.97;;
10945;SDS011;5525;42.648;23.368;2022-08-01T13:43:36;3.40;;;3.10;;
10945;SDS011;5525;42.648;23.368;2022-08-01T13:46:03;3.05;;;2.75;;
10945;SDS011;5525;42.648;23.368;2022-08-01T13:48:32;2.90;;;2.70;;
10945;SDS011;5525;42.648;23.368;2022-08-01T13:51:00;3.45;;;2.70;;
10945;SDS011;5525;42.648;23.368;2022-08-01T13:53:27;2.95;;;2.75;;
10945;SDS011;5525;42.648;23.368;2022-08-01T13:55:56;3.47;;;3.17;;
10945;SDS011;5525;42.648;23.368;2022-08-01T13:58:23;3.35;;;3.03;;
10945;SDS011;5525;42.648;23.368;2022-08-01T14:00:50;3.60;;;2.90;;
10945;SDS011;5525;42.648;23.368;2022-08-01T14:03:17;3.00;;;2.70;;
10945;SDS011;5525;42.648;23.368;2022-08-01T14:05:46;3.47;;;2.85;;
10945;SDS011;5525;42.648;23.368;2022-08-01T14:08:13;3.85;;;3.40;;
10945;SDS011;5525;42.648;23.368;2022-08-01T14:10:40;3.50;;;3.17;;
10945;SDS011;5525;42.648;23.368;2022-08-01T14:13:08;3.65;;;2.67;;
10945;SDS011;5525;42.648;23.368;2022-08-01T14:15:35;3.45;;;2.95;;
10945;SDS011;5525;42.648;23.368;2022-08-01T14:18:02;3.85;;;2.70;;
10945;SDS011;5525;42.648;23.368;2022-08-01T14:20:30;3.13;;;2.92;;
10945;SDS011;5525;42.648;23.368;2022-08-01T14:22:58;3.00;;;2.67;;
10945;SDS011;5525;42.648;23.368;2022-08-01T14:25:25;2.95;;;2.60;;
10945;SDS011;5525;42.648;23.368;2022-08-01T14:27:53;5.07;;;2.60;;
10945;SDS011;5525;42.648;23.368;2022-08-01T14:30:19;3.50;;;2.88;;
10945;SDS011;5525;42.648;23.368;2022-08-01T14:32:47;3.15;;;2.50;;
10945;SDS011;5525;42.648;23.368;2022-08-01T14:35:13;3.05;;;2.75;;
10945;SDS011;5525;42.648;23.368;2022-08-01T14:37:40;2.88;;;2.65;;
10945;SDS011;5525;42.648;23.368;2022-08-01T14:40:09;2.60;;;2.50;;
10945;SDS011;5525;42.648;23.368;2022-08-01T14:42:36;2.92;;;2.70;;
10945;SDS011;5525;42.648;23.368;2022-08-01T14:45:04;3.15;;;2.53;;
10945;SDS011;5525;42.648;23.368;2022-08-01T14:47:34;2.83;;;2.63;;
10945;SDS011;5525;42.648;23.368;2022-08-01T14:50:02;2.75;;;2.55;;
10945;SDS011;5525;42.648;23.368;2022-08-01T14:52:29;3.00;;;2.80;;
10945;SDS011;5525;42.648;23.368;2022-08-01T14:54:56;2.92;;;2.63;;
10945;SDS011;5525;42.648;23.368;2022-08-01T14:57:25;3.30;;;2.83;;
10945;SDS011;5525;42.648;23.368;2022-08-01T14:59:52;2.60;;;2.40;;
10945;SDS011;5525;42.648;23.368;2022-08-01T15:02:19;2.95;;;2.75;;
10945;SDS011;5525;42.648;23.368;2022-08-01T15:04:46;2.67;;;2.47;;
10945;SDS011;5525;42.648;23.368;2022-08-01T15:07:14;3.13;;;2.67;;
10945;SDS011;5525;42.648;23.368;2022-08-01T15:09:42;3.78;;;2.60;;